Time;durP1;ratioP1;P1;durP2;ratioP2;P2;SDS_P1;SDS_P2;PMS_P1;PMS_P2;Temp;Humidity;BMP_temperature;BMP_pressure;BME280_temperature;BME280_humidity;BME280_pressure;Samples;Min_cycle;Max_cycle;Signal;HPM_P1;HPM_P2
2023/09/05 00:02:15;;;;;;;3.72;3.35;;;15.00;99.90;;;;;;6091345;23;20025;-64
2023/09/05 00:04:44;;;;;;;3.42;3.13;;;15.00;99.90;;;;;;6091893;23;20057;-64
2023/09/05 00:07:10;;;;;;;3.33;3.03;;;15.10;99.90;;;;;;6115586;23;20025;-64
2023/09/05 00:09:36;;;;;;;6.25;3.38;;;15.00;99.90;;;;;;6117179;23;20041;-64
2023/09/05 00:12:06;;;;;;;3.83;3.10;;;15.10;99.90;;;;;;6089742;23;20429;-64
2023/09/05 00:14:32;;;;;;;3.25;2.95;;;15.10;99.90;;;;;;6091712;23;20017;-64
2023/09/05 00:20:38;;;;;;;7.15;3.63;;;15.10;99.90;;;;;;6113773;23;20036;-64
2023/09/05 00:23:04;;;;;;;4.97;3.53;;;15.00;99.90;;;;;;6118748;23;20045;-64
2023/09/05 00:25:29;;;;;;;3.55;3.25;;;15.00;99.90;;;;;;6091589;23;20025;-64
2023/09/05 00:27:55;;;;;;;3.97;3.50;;;15.10;99.90;;;;;;6091524;23;20018;-64
2023/09/05 00:30:22;;;;;;;5.38;3.40;;;15.10;99.90;;;;;;6091888;23;20022;-64
2023/09/05 00:32:47;;;;;;;4.00;3.60;;;15.10;99.90;;;;;;6093572;23;20098;-64
2023/09/05 00:35:14;;;;;;;4.15;3.75;;;15.00;99.90;;;;;;6092512;23;20433;-64
2023/09/05 00:37:40;;;;;;;7.72;3.63;;;15.00;99.90;;;;;;6119560;23;20013;-64
2023/09/05 00:40:06;;;;;;;3.85;3.45;;;15.00;99.90;;;;;;6091542;23;20014;-64
2023/09/05 00:42:31;;;;;;;3.33;3.05;;;15.00;99.90;;;;;;6069090;23;20085;-64
2023/09/05 00:44:58;;;;;;;7.32;3.03;;;15.00;99.90;;;;;;6092618;23;20389;-64
2023/09/05 00:47:28;;;;;;;3.58;3.20;;;15.00;99.90;;;;;;6092972;23;20018;-64
2023/09/05 00:50:10;;;;;;;5.30;3.55;;;15.00;99.90;;;;;;6091180;23;20022;-64
2023/09/05 00:52:36;;;;;;;4.93;4.18;;;15.00;99.90;;;;;;6093406;23;20095;-64
2023/09/05 00:55:02;;;;;;;4.47;3.88;;;14.90;99.90;;;;;;6119769;23;20010;-64
2023/09/05 00:57:28;;;;;;;4.38;3.67;;;14.90;99.90;;;;;;6092871;23;20042;-64
2023/09/05 00:59:54;;;;;;;4.68;3.90;;;14.90;99.90;;;;;;6119027;23;20037;-64
2023/09/05 01:02:19;;;;;;;5.07;3.85;;;14.80;99.90;;;;;;6093206;23;20018;-64
2023/09/05 01:04:45;;;;;;;7.25;3.92;;;14.80;99.90;;;;;;6119639;23;20337;-64
2023/09/05 01:07:47;;;;;;;4.53;4.20;;;14.90;99.90;;;;;;6091398;23;20014;-64
2023/09/05 01:10:31;;;;;;;7.45;4.57;;;14.80;99.90;;;;;;6092227;23;20017;-64
2023/09/05 01:13:00;;;;;;;5.18;4.78;;;14.80;99.90;;;;;;6093288;23;20093;-64
2023/09/05 01:15:25;;;;;;;6.03;4.78;;;14.80;99.90;;;;;;6093386;23;20052;-64
2023/09/05 01:17:54;;;;;;;6.38;4.78;;;14.80;99.90;;;;;;6119273;23;20014;-64
2023/09/05 01:20:26;;;;;;;5.88;4.78;;;14.70;99.90;;;;;;6070095;23;20045;-64
2023/09/05 01:23:05;;;;;;;5.93;5.05;;;14.70;99.90;;;;;;6119709;23;20029;-64
2023/09/05 01:25:31;;;;;;;7.03;5.28;;;14.70;99.90;;;;;;6119506;23;20014;-64
2023/09/05 01:28:00;;;;;;;5.78;4.75;;;14.70;99.90;;;;;;6119869;23;20018;-64
2023/09/05 01:30:27;;;;;;;5.35;4.82;;;14.60;99.90;;;;;;6119866;23;20014;-64
2023/09/05 01:32:53;;;;;;;5.13;4.63;;;14.70;99.90;;;;;;6092852;23;20022;-64
2023/09/05 01:35:18;;;;;;;5.63;4.68;;;14.60;99.90;;;;;;6094516;23;20018;-64
2023/09/05 01:37:44;;;;;;;5.68;5.03;;;14.50;99.90;;;;;;6118547;23;20021;-64
2023/09/05 01:40:11;;;;;;;5.65;5.15;;;14.50;99.90;;;;;;6091256;23;20018;-64
2023/09/05 01:42:38;;;;;;;5.90;5.43;;;14.50;99.90;;;;;;6090912;23;20087;-64
2023/09/05 01:45:04;;;;;;;7.45;4.75;;;14.40;99.90;;;;;;6119241;23;20022;-64
2023/09/05 01:47:30;;;;;;;5.05;4.60;;;14.40;99.90;;;;;;6092844;23;20025;-64
2023/09/05 01:49:55;;;;;;;6.60;5.13;;;14.40;99.90;;;;;;6091441;23;20021;-64
2023/09/05 01:52:21;;;;;;;6.65;5.15;;;14.40;99.90;;;;;;6092615;23;20021;-64
2023/09/05 01:54:46;;;;;;;6.68;5.50;;;14.40;99.90;;;;;;6119085;23;20010;-64
2023/09/05 01:57:12;;;;;;;7.45;5.57;;;14.40;99.90;;;;;;6092662;23;20384;-64
2023/09/05 01:59:37;;;;;;;5.45;4.97;;;14.40;99.90;;;;;;6118733;23;20010;-64
2023/09/05 02:02:03;;;;;;;6.07;5.47;;;14.50;99.90;;;;;;6117621;23;20014;-64
2023/09/05 02:04:28;;;;;;;5.53;5.03;;;14.50;99.90;;;;;;6118918;23;20022;-64
2023/09/05 02:06:54;;;;;;;5.60;5.13;;;14.50;99.90;;;;;;6092072;23;20033;-64
2023/09/05 02:09:20;;;;;;;5.53;4.88;;;14.50;99.90;;;;;;6118627;23;20021;-64
2023/09/05 02:11:45;;;;;;;5.35;4.95;;;14.50;99.90;;;;;;6068070;23;20459;-64
2023/09/05 02:14:11;;;;;;;5.20;4.70;;;14.50;99.90;;;;;;6118513;23;20416;-64
2023/09/05 02:16:36;;;;;;;5.75;5.28;;;14.40;99.90;;;;;;6118231;23;20010;-64
2023/09/05 02:19:02;;;;;;;6.05;4.80;;;14.40;99.90;;;;;;6091307;23;20048;-64
2023/09/05 02:21:28;;;;;;;5.88;5.05;;;14.30;99.90;;;;;;6117642;23;20026;-64
2023/09/05 02:23:53;;;;;;;5.07;4.40;;;14.30;99.90;;;;;;6092416;23;20360;-64
2023/09/05 02:26:19;;;;;;;5.38;4.70;;;14.30;99.90;;;;;;6117696;23;20025;-64
2023/09/05 02:28:44;;;;;;;5.53;5.03;;;14.30;99.90;;;;;;6091820;23;20022;-64
2023/09/05 02:31:10;;;;;;;5.10;4.70;;;14.30;99.90;;;;;;6118749;23;20518;-64
2023/09/05 02:33:37;;;;;;;5.70;4.82;;;14.20;99.90;;;;;;6119188;23;20444;-64
2023/09/05 02:36:10;;;;;;;9.23;5.97;;;14.20;99.90;;;;;;6118435;23;20018;-64
2023/09/05 02:38:37;;;;;;;5.05;4.65;;;14.20;99.90;;;;;;6117750;23;20025;-64
2023/09/05 02:41:03;;;;;;;5.90;5.20;;;14.20;99.90;;;;;;6092495;23;20057;-64
2023/09/05 02:43:28;;;;;;;5.60;5.10;;;14.20;99.90;;;;;;6092888;23;20021;-64
2023/09/05 02:45:54;;;;;;;8.85;5.07;;;14.20;99.90;;;;;;6118237;23;20026;-64
2023/09/05 02:48:19;;;;;;;5.47;4.97;;;14.20;99.90;;;;;;6092715;23;20049;-64
2023/09/05 02:50:45;;;;;;;6.88;5.45;;;14.10;99.90;;;;;;6091741;23;20026;-64
2023/09/05 02:53:10;;;;;;;5.22;4.63;;;14.20;99.90;;;;;;6091448;23;20041;-64
2023/09/05 02:55:43;;;;;;;8.77;5.38;;;14.10;99.90;;;;;;6092347;23;20443;-64
2023/09/05 02:58:09;;;;;;;8.43;5.07;;;14.10;99.90;;;;;;6092392;23;20018;-64
2023/09/05 03:00:35;;;;;;;4.82;4.35;;;14.10;99.90;;;;;;6118541;23;20024;-64
2023/09/05 03:03:01;;;;;;;5.45;5.00;;;14.10;99.90;;;;;;6118175;23;20017;-64
2023/09/05 03:05:27;;;;;;;6.43;5.10;;;14.10;99.90;;;;;;6091931;23;20353;-64
2023/09/05 03:07:52;;;;;;;5.57;5.07;;;14.10;99.90;;;;;;6092412;23;20026;-64
2023/09/05 03:10:18;;;;;;;5.97;5.38;;;14.00;99.90;;;;;;6117547;23;20090;-64
2023/09/05 03:12:44;;;;;;;7.00;5.55;;;14.00;99.90;;;;;;6092835;23;20057;-64
2023/09/05 03:15:09;;;;;;;5.65;5.18;;;14.10;99.90;;;;;;6118378;23;20017;-64
2023/09/05 03:17:35;;;;;;;5.93;5.43;;;14.10;99.90;;;;;;6093096;23;20017;-64
2023/09/05 03:20:00;;;;;;;8.15;5.85;;;14.00;99.90;;;;;;6091908;23;20341;-64
2023/09/05 03:22:26;;;;;;;5.95;5.45;;;14.00;99.90;;;;;;6068630;23;20348;-64
2023/09/05 03:24:52;;;;;;;7.93;5.60;;;14.00;99.90;;;;;;6117761;23;20586;-64
2023/09/05 03:27:17;;;;;;;6.18;5.60;;;14.00;99.90;;;;;;6118050;23;20014;-64
2023/09/05 03:29:43;;;;;;;6.70;6.03;;;14.10;99.90;;;;;;6092082;23;20064;-64
2023/09/05 03:32:08;;;;;;;6.22;5.68;;;14.00;99.90;;;;;;6117710;23;20857;-64
2023/09/05 03:34:34;;;;;;;5.90;5.30;;;14.00;99.90;;;;;;6068518;23;20460;-64
2023/09/05 03:37:00;;;;;;;5.53;5.03;;;14.00;99.90;;;;;;6117940;23;20033;-64
2023/09/05 03:39:25;;;;;;;5.53;5.03;;;14.00;99.90;;;;;;6117067;23;20063;-64
2023/09/05 03:41:52;;;;;;;8.10;6.97;;;14.00;99.90;;;;;;6117652;23;20017;-64
2023/09/05 03:44:18;;;;;;;7.25;6.05;;;14.00;99.90;;;;;;6117947;23;20021;-64
2023/09/05 03:46:44;;;;;;;7.57;6.75;;;14.00;99.90;;;;;;6092306;23;20018;-64
2023/09/05 03:49:10;;;;;;;7.32;6.72;;;14.00;99.90;;;;;;6091181;23;20067;-64
2023/09/05 03:51:35;;;;;;;7.00;6.35;;;14.10;99.90;;;;;;6117268;23;20433;-64
2023/09/05 03:54:01;;;;;;;6.28;5.53;;;14.10;99.90;;;;;;6117776;23;20072;-64
2023/09/05 03:56:27;;;;;;;6.35;5.85;;;14.00;99.90;;;;;;6117757;23;20018;-64
2023/09/05 03:58:53;;;;;;;6.00;5.35;;;14.00;99.90;;;;;;6117486;23;20010;-64
2023/09/05 04:01:18;;;;;;;7.72;6.95;;;14.00;99.90;;;;;;6117449;23;20223;-64
2023/09/05 04:03:47;;;;;;;7.10;6.40;;;14.00;99.90;;;;;;6118312;23;20487;-64
2023/09/05 04:06:13;;;;;;;7.85;7.15;;;13.90;99.90;;;;;;6092259;23;20083;-64
2023/09/05 04:08:39;;;;;;;7.22;6.53;;;14.00;99.90;;;;;;6092525;23;20030;-64
2023/09/05 04:11:04;;;;;;;7.63;6.85;;;14.00;99.90;;;;;;6092311;23;20045;-64
2023/09/05 04:13:30;;;;;;;8.00;6.68;;;14.00;99.90;;;;;;6092819;23;20022;-64
2023/09/05 04:16:05;;;;;;;7.85;7.03;;;14.00;99.90;;;;;;6089704;23;20081;-64
2023/09/05 04:18:30;;;;;;;7.63;6.82;;;14.00;99.90;;;;;;6091710;23;20049;-64
2023/09/05 04:20:59;;;;;;;7.22;6.53;;;14.00;99.90;;;;;;6118206;23;20010;-64
2023/09/05 04:23:25;;;;;;;7.57;6.90;;;14.10;99.90;;;;;;6118519;23;20449;-64
2023/09/05 04:26:01;;;;;;;7.18;6.57;;;14.00;99.90;;;;;;6118114;23;20010;-64
2023/09/05 04:28:28;;;;;;;6.35;5.75;;;14.00;99.90;;;;;;6091888;23;20029;-64
2023/09/05 04:30:57;;;;;;;6.88;6.18;;;14.00;99.90;;;;;;6117549;23;20017;-64
2023/09/05 04:33:25;;;;;;;7.68;7.00;;;13.90;99.90;;;;;;6119069;23;20018;-64
2023/09/05 04:35:51;;;;;;;6.68;6.05;;;13.90;99.90;;;;;;6068621;23;20014;-64
2023/09/05 04:38:17;;;;;;;7.07;6.47;;;13.80;99.90;;;;;;6092247;23;20073;-64
2023/09/05 04:40:43;;;;;;;7.35;6.63;;;13.80;99.90;;;;;;6091700;23;20101;-64
2023/09/05 04:43:09;;;;;;;8.68;6.45;;;13.90;99.90;;;;;;6118023;23;20025;-64
2023/09/05 04:45:34;;;;;;;8.20;6.80;;;13.80;99.90;;;;;;6117412;23;20021;-64
2023/09/05 04:48:00;;;;;;;6.80;6.20;;;13.90;99.90;;;;;;6092989;23;20014;-64
2023/09/05 04:50:26;;;;;;;6.97;6.38;;;13.90;99.90;;;;;;6091560;23;20022;-64
2023/09/05 04:52:51;;;;;;;7.70;7.00;;;13.90;99.90;;;;;;6116983;23;20352;-64
2023/09/05 04:55:17;;;;;;;7.82;7.03;;;13.90;99.90;;;;;;6116653;23;20067;-64
2023/09/05 04:57:42;;;;;;;7.93;7.13;;;13.90;99.90;;;;;;6091284;23;20010;-64
2023/09/05 05:59:27;;;;;;;7.28;4.85;;;17.60;99.90;;;;;;6121276;23;20020;-64
2023/09/05 06:01:53;;;;;;;5.07;4.57;;;18.70;99.90;;;;;;6118936;23;20014;-64
2023/09/05 06:04:22;;;;;;;5.38;3.90;;;20.30;99.90;;;;;;6118361;23;20021;-65
2023/09/05 06:06:49;;;;;;;5.35;4.20;;;21.70;99.90;;;;;;6093463;23;20025;-65
2023/09/05 06:09:18;;;;;;;4.25;3.85;;;22.70;99.90;;;;;;6093203;23;20014;-65
2023/09/05 06:11:47;;;;;;;5.55;3.78;;;23.90;99.90;;;;;;6119306;23;20025;-65
2023/09/05 06:14:16;;;;;;;8.07;4.32;;;24.30;99.90;;;;;;6093440;23;20049;-65
2023/09/05 06:16:46;;;;;;;6.47;3.88;;;25.00;99.90;;;;;;6091998;23;20014;-65
2023/09/05 06:19:12;;;;;;;6.45;4.20;;;25.40;99.90;;;;;;6093134;23;20028;-65
2023/09/05 06:21:38;;;;;;;4.35;3.95;;;26.50;99.90;;;;;;6119502;23;20006;-65
2023/09/05 06:24:04;;;;;;;4.07;3.58;;;26.70;99.90;;;;;;6119301;23;20093;-65
2023/09/05 06:26:29;;;;;;;4.22;3.63;;;27.20;99.90;;;;;;6118357;23;20467;-65
2023/09/05 06:28:55;;;;;;;4.50;3.38;;;28.20;99.90;;;;;;6118439;23;20017;-65
2023/09/05 06:31:21;;;;;;;6.28;3.15;;;29.30;99.90;;;;;;6092952;23;20049;-65
2023/09/05 06:33:47;;;;;;;5.38;2.95;;;30.30;99.30;;;;;;6090970;23;20043;-65
2023/09/05 06:36:13;;;;;;;3.13;2.72;;;31.00;98.30;;;;;;6117678;23;20457;-65
2023/09/05 06:38:39;;;;;;;3.28;2.70;;;31.90;97.40;;;;;;6115794;23;20063;-65
2023/09/05 06:41:10;;;;;;;3.60;3.10;;;32.00;96.20;;;;;;6115418;23;20068;-65
2023/09/05 06:43:37;;;;;;;4.50;3.08;;;32.30;95.20;;;;;;6119915;23;20076;-65
2023/09/05 06:46:07;;;;;;;3.22;2.92;;;31.60;95.20;;;;;;6093892;23;20018;-65
2023/09/05 06:48:38;;;;;;;4.07;3.65;;;30.60;95.10;;;;;;6118183;23;20116;-65
2023/09/05 06:51:04;;;;;;;3.17;2.88;;;29.70;95.70;;;;;;6118435;23;20383;-65
2023/09/05 06:53:31;;;;;;;3.88;3.45;;;28.80;96.50;;;;;;6118852;23;20022;-65
2023/09/05 06:55:57;;;;;;;4.38;3.40;;;28.20;96.90;;;;;;6118399;23;20017;-64
2023/09/05 06:58:24;;;;;;;3.40;3.17;;;27.70;97.30;;;;;;6092533;23;20489;-64
2023/09/05 07:00:54;;;;;;;5.32;3.40;;;27.50;97.50;;;;;;6119711;23;20080;-64
2023/09/05 07:03:23;;;;;;;4.35;3.38;;;27.10;97.60;;;;;;6119038;23;20017;-65
2023/09/05 07:05:51;;;;;;;4.28;3.17;;;26.70;97.80;;;;;;6092680;23;20010;-64
2023/09/05 07:08:17;;;;;;;5.90;3.85;;;26.40;98.30;;;;;;6092670;23;20009;-65
2023/09/05 07:10:43;;;;;;;4.00;3.65;;;25.90;98.60;;;;;;6091593;23;20025;-65
2023/09/05 07:13:08;;;;;;;6.00;4.00;;;25.30;98.90;;;;;;6092977;23;20057;-64
2023/09/05 07:15:34;;;;;;;6.60;3.13;;;24.50;99.30;;;;;;6117807;23;20025;-65
2023/09/05 07:18:00;;;;;;;3.92;2.97;;;24.30;99.90;;;;;;6117979;23;20690;-65
2023/09/05 07:20:25;;;;;;;3.97;3.53;;;24.30;99.90;;;;;;6092144;23;20096;-65
2023/09/05 07:22:51;;;;;;;7.43;3.10;;;23.90;99.90;;;;;;6118666;23;20022;-64
2023/09/05 07:25:18;;;;;;;4.25;3.85;;;23.70;99.90;;;;;;6118217;23;20025;-65
2023/09/05 07:27:43;;;;;;;5.03;3.40;;;23.60;99.90;;;;;;6117888;23;20010;-65
2023/09/05 07:30:09;;;;;;;4.80;3.30;;;23.30;99.90;;;;;;6091323;23;20433;-65
2023/09/05 07:32:36;;;;;;;3.53;2.83;;;23.20;99.90;;;;;;6093055;23;20444;-65
2023/09/05 07:35:03;;;;;;;3.45;2.97;;;23.20;99.90;;;;;;6092875;23;20049;-65
2023/09/05 07:37:28;;;;;;;3.75;3.45;;;23.00;99.90;;;;;;6117939;23;20298;-65
2023/09/05 07:39:54;;;;;;;6.00;3.13;;;22.90;99.90;;;;;;6091848;23;20080;-65
2023/09/05 07:42:20;;;;;;;3.33;3.03;;;22.80;99.90;;;;;;6119169;23;20621;-65
2023/09/05 07:44:45;;;;;;;5.00;3.50;;;22.80;99.90;;;;;;6093889;23;20340;-65
2023/09/05 07:47:11;;;;;;;3.90;3.00;;;22.70;99.90;;;;;;6118908;23;20009;-65
2023/09/05 07:49:39;;;;;;;3.22;2.90;;;22.60;99.90;;;;;;6119375;23;20010;-65
2023/09/05 07:52:05;;;;;;;3.40;3.10;;;22.50;99.90;;;;;;6093156;23;20505;-65
2023/09/05 07:54:30;;;;;;;2.40;2.20;;;22.50;99.90;;;;;;6119952;23;20441;-65
2023/09/05 07:56:56;;;;;;;3.45;3.08;;;22.50;99.90;;;;;;6118156;23;20025;-65
2023/09/05 07:59:23;;;;;;;2.90;2.60;;;22.40;99.90;;;;;;6118680;23;20065;-65
2023/09/05 08:01:48;;;;;;;3.13;2.80;;;22.50;99.90;;;;;;6093413;23;20075;-65
2023/09/05 08:04:14;;;;;;;4.40;2.88;;;22.60;99.90;;;;;;6092985;23;20348;-65
2023/09/05 08:06:40;;;;;;;2.92;2.70;;;22.60;99.90;;;;;;6118312;23;20371;-65
2023/09/05 08:09:05;;;;;;;7.97;2.60;;;22.70;99.90;;;;;;6118047;23;20053;-65
2023/09/05 08:11:31;;;;;;;5.50;2.85;;;22.90;99.90;;;;;;6092363;23;20018;-65
2023/09/05 08:13:57;;;;;;;2.70;2.28;;;23.10;99.90;;;;;;6119338;23;20014;-65
2023/09/05 08:16:22;;;;;;;2.42;2.20;;;23.20;99.90;;;;;;6092523;23;20029;-65
2023/09/05 08:18:48;;;;;;;4.10;2.67;;;23.40;99.90;;;;;;6117830;23;20052;-65
2023/09/05 08:21:13;;;;;;;2.58;2.08;;;23.70;99.90;;;;;;6091985;23;20038;-65
2023/09/05 08:23:39;;;;;;;2.38;2.13;;;24.00;99.90;;;;;;6093005;23;20445;-65
2023/09/05 08:26:10;;;;;;;3.95;3.03;;;24.30;99.90;;;;;;6092917;23;20080;-65
2023/09/05 08:28:40;;;;;;;3.78;1.95;;;24.30;99.90;;;;;;6118566;23;20014;-65
2023/09/05 08:31:06;;;;;;;2.72;2.00;;;24.80;99.90;;;;;;6092706;23;20018;-65
2023/09/05 08:33:31;;;;;;;3.38;1.83;;;25.00;99.90;;;;;;6119502;23;20025;-65
2023/09/05 08:35:57;;;;;;;2.13;1.67;;;25.20;99.90;;;;;;6091435;23;20093;-65
2023/09/05 08:38:23;;;;;;;3.85;1.55;;;25.40;99.90;;;;;;6119081;23;20010;-65
2023/09/05 08:40:48;;;;;;;2.60;1.80;;;25.70;99.90;;;;;;6120556;23;20014;-65
2023/09/05 08:43:16;;;;;;;3.33;1.52;;;25.90;99.90;;;;;;6120835;23;20014;-65
2023/09/05 08:45:44;;;;;;;4.85;1.85;;;26.10;99.90;;;;;;6120601;23;20060;-66
2023/09/05 08:48:10;;;;;;;2.83;1.13;;;26.40;99.90;;;;;;6093274;23;20018;-65
2023/09/05 08:50:36;;;;;;;3.72;1.40;;;26.60;99.90;;;;;;6119285;23;20021;-65
2023/09/05 08:53:11;;;;;;;1.65;1.20;;;26.80;99.90;;;;;;6092659;23;20045;-66
2023/09/05 08:55:40;;;;;;;4.53;1.23;;;26.90;99.90;;;;;;6093402;23;20455;-65
2023/09/05 08:58:11;;;;;;;1.88;1.45;;;26.90;99.90;;;;;;6119918;23;20006;-66
2023/09/05 09:00:37;;;;;;;1.27;0.90;;;27.10;99.90;;;;;;6120040;23;20058;-65
2023/09/05 09:03:06;;;;;;;2.15;1.50;;;27.30;99.90;;;;;;6118109;23;20514;-65
2023/09/05 09:05:32;;;;;;;1.10;1.00;;;27.20;99.90;;;;;;6118080;23;20022;-65
2023/09/05 09:07:58;;;;;;;3.97;1.25;;;27.40;99.90;;;;;;6119453;23;20085;-65
2023/09/05 09:10:23;;;;;;;2.45;1.23;;;27.60;99.90;;;;;;6069144;23;20057;-65
2023/09/05 09:12:54;;;;;;;2.28;1.15;;;27.70;99.90;;;;;;6119687;23;20010;-65
2023/09/05 09:15:25;;;;;;;3.20;1.52;;;27.90;99.90;;;;;;6092949;23;20022;-65
2023/09/05 09:17:51;;;;;;;1.55;1.27;;;27.90;99.90;;;;;;6118086;23;20328;-65
2023/09/05 09:20:19;;;;;;;2.20;1.10;;;27.90;99.80;;;;;;6118427;23;20010;-65
2023/09/05 09:22:47;;;;;;;2.38;1.02;;;28.10;99.60;;;;;;6092686;23;20022;-65
2023/09/05 09:25:20;;;;;;;3.38;1.25;;;28.10;99.80;;;;;;6117662;23;20018;-65
2023/09/05 09:27:53;;;;;;;1.55;0.90;;;28.00;99.50;;;;;;6093047;23;20425;-65
2023/09/05 09:30:27;;;;;;;3.38;1.85;;;27.90;98.70;;;;;;6093450;23;20053;-65
2023/09/05 09:32:54;;;;;;;4.20;1.17;;;27.80;98.30;;;;;;6118363;23;20088;-65
2023/09/05 09:35:21;;;;;;;3.40;0.98;;;27.80;98.60;;;;;;6119672;23;20056;-65
2023/09/05 09:37:47;;;;;;;0.90;0.60;;;27.90;98.20;;;;;;6093264;23;20017;-65
2023/09/05 09:40:16;;;;;;;2.55;0.98;;;27.80;97.20;;;;;;6118355;23;20009;-65
2023/09/05 09:42:43;;;;;;;3.20;0.93;;;27.70;96.90;;;;;;6093193;23;20353;-65
2023/09/05 09:45:09;;;;;;;1.30;0.88;;;27.60;97.30;;;;;;6092697;23;20026;-65
2023/09/05 09:47:43;;;;;;;2.92;1.25;;;27.80;97.90;;;;;;6119324;23;20014;-65
2023/09/05 09:50:11;;;;;;;3.40;1.65;;;27.80;98.10;;;;;;6092416;23;20024;-66
2023/09/05 09:52:42;;;;;;;3.78;1.00;;;27.80;97.90;;;;;;6093555;23;20025;-66
2023/09/05 09:55:11;;;;;;;1.90;0.93;;;27.70;97.90;;;;;;6120077;23;20014;-65
2023/09/05 09:57:45;;;;;;;1.50;0.70;;;27.70;98.50;;;;;;6118565;23;20014;-65
2023/09/05 10:00:15;;;;;;;2.25;0.80;;;27.80;98.20;;;;;;6119436;23;20067;-65
2023/09/05 10:02:45;;;;;;;3.33;0.95;;;27.70;98.00;;;;;;6119765;23;20088;-65
2023/09/05 10:05:11;;;;;;;2.10;1.02;;;27.60;98.30;;;;;;6117444;23;20504;-65
2023/09/05 10:07:38;;;;;;;2.15;0.80;;;27.70;98.30;;;;;;6118740;23;20052;-66
2023/09/05 10:10:09;;;;;;;2.63;1.20;;;27.80;98.70;;;;;;6118205;23;20045;-65
2023/09/05 10:12:37;;;;;;;0.90;0.70;;;27.90;98.00;;;;;;6120009;23;20395;-65
2023/09/05 10:15:04;;;;;;;1.08;0.60;;;27.70;97.10;;;;;;6092831;23;20018;-65
2023/09/05 10:17:31;;;;;;;2.75;0.85;;;27.80;97.00;;;;;;6093395;23;20040;-65
2023/09/05 10:19:57;;;;;;;1.52;1.00;;;27.80;96.80;;;;;;6092097;23;20041;-66
2023/09/05 10:22:24;;;;;;;1.90;0.90;;;27.90;97.90;;;;;;6119044;23;20014;-66
2023/09/05 10:24:51;;;;;;;2.10;0.95;;;28.10;98.50;;;;;;6119430;23;20441;-65
2023/09/05 10:27:17;;;;;;;1.00;0.70;;;28.50;98.70;;;;;;6093779;23;20083;-65
2023/09/05 10:29:48;;;;;;;1.75;0.80;;;28.50;98.00;;;;;;6118737;23;20465;-65
2023/09/05 10:32:24;;;;;;;1.55;0.80;;;28.60;97.70;;;;;;6092969;23;20017;-65
2023/09/05 10:35:01;;;;;;;1.95;0.80;;;28.40;97.10;;;;;;6119411;23;20014;-65
2023/09/05 10:38:05;;;;;;;2.95;0.68;;;28.40;96.40;;;;;;6119466;23;20018;-65
2023/09/05 10:40:35;;;;;;;2.72;1.02;;;28.40;96.40;;;;;;6118518;23;20069;-65
2023/09/05 10:43:03;;;;;;;1.10;0.75;;;28.60;97.20;;;;;;6093134;23;20013;-66
2023/09/05 10:45:34;;;;;;;2.97;0.90;;;28.70;97.00;;;;;;6118661;23;20026;-65
2023/09/05 10:48:11;;;;;;;1.25;0.70;;;28.80;96.70;;;;;;6118296;23;20464;-65
2023/09/05 10:51:06;;;;;;;0.98;0.60;;;28.80;95.70;;;;;;6116608;23;20071;-65
2023/09/05 10:53:33;;;;;;;1.60;0.77;;;28.80;94.60;;;;;;6116863;23;20007;-66
2023/09/05 10:55:59;;;;;;;2.50;0.70;;;28.80;95.70;;;;;;6091117;23;20025;-66
2023/09/05 10:58:39;;;;;;;1.02;0.50;;;28.80;95.70;;;;;;6092055;23;20018;-65
2023/09/05 11:01:30;;;;;;;1.13;0.70;;;29.00;96.50;;;;;;6093340;23;20014;-65
2023/09/05 11:03:58;;;;;;;2.47;0.68;;;29.00;95.70;;;;;;6091201;23;20029;-65
2023/09/05 11:06:25;;;;;;;1.30;0.70;;;29.10;96.20;;;;;;6117601;23;20516;-65
2023/09/05 11:09:05;;;;;;;2.15;0.70;;;29.10;96.20;;;;;;6092349;23;20076;-65
2023/09/05 11:11:32;;;;;;;1.48;0.65;;;29.10;95.70;;;;;;6118721;23;20022;-66
2023/09/05 11:13:57;;;;;;;1.52;0.70;;;29.10;95.10;;;;;;6093176;23;20141;-66
2023/09/05 11:16:26;;;;;;;0.73;0.50;;;29.20;95.20;;;;;;6092685;23;20128;-66
2023/09/05 11:18:56;;;;;;;3.35;0.70;;;29.30;95.40;;;;;;6091913;23;20018;-66
2023/09/05 11:21:23;;;;;;;1.20;0.60;;;29.20;94.90;;;;;;6092807;23;20018;-66
2023/09/05 11:23:53;;;;;;;0.90;0.70;;;29.40;95.40;;;;;;6091984;23;20448;-66
2023/09/05 11:26:19;;;;;;;1.17;0.80;;;29.50;95.10;;;;;;6092151;23;20334;-65
2023/09/05 11:28:48;;;;;;;1.67;0.70;;;29.50;95.30;;;;;;6117747;23;20076;-66
2023/09/05 11:31:15;;;;;;;0.52;0.40;;;29.50;95.50;;;;;;6119144;23;20341;-65
2023/09/05 11:33:41;;;;;;;1.10;0.68;;;29.70;95.70;;;;;;6118630;23;20380;-66
2023/09/05 11:36:07;;;;;;;1.20;0.82;;;29.60;95.20;;;;;;6116745;23;20018;-65
2023/09/05 11:39:02;;;;;;;0.75;0.60;;;29.60;95.40;;;;;;6091711;23;20045;-65
2023/09/05 11:41:39;;;;;;;1.10;0.60;;;29.60;94.20;;;;;;6092912;23;20021;-65
2023/09/05 11:44:06;;;;;;;1.08;0.55;;;29.70;95.10;;;;;;6118237;23;20022;-66
2023/09/05 11:46:34;;;;;;;1.85;0.68;;;29.70;94.70;;;;;;6093003;23;20143;-65
2023/09/05 11:49:01;;;;;;;1.98;0.73;;;29.60;95.00;;;;;;6118480;23;20029;-65
2023/09/05 11:51:27;;;;;;;1.27;0.63;;;29.70;94.90;;;;;;6118824;23;20014;-66
2023/09/05 11:53:53;;;;;;;0.98;0.75;;;29.80;95.10;;;;;;6117712;23;20040;-65
2023/09/05 11:56:19;;;;;;;1.63;0.60;;;29.90;95.10;;;;;;6069031;23;20457;-65
2023/09/05 11:58:45;;;;;;;0.50;0.43;;;30.10;95.40;;;;;;6118832;23;20053;-66
2023/09/05 12:01:11;;;;;;;2.00;0.70;;;30.20;94.90;;;;;;6117605;23;20032;-65
2023/09/05 12:03:38;;;;;;;0.63;0.60;;;30.00;94.10;;;;;;6091810;23;20049;-65
2023/09/05 12:06:04;;;;;;;1.77;0.55;;;29.90;94.20;;;;;;6118441;23;20017;-66
2023/09/05 12:08:30;;;;;;;3.08;0.63;;;29.80;94.70;;;;;;6118665;23;20025;-65
2023/09/05 12:10:57;;;;;;;1.98;0.68;;;29.80;94.60;;;;;;6118365;23;20014;-66
2023/09/05 12:13:45;;;;;;;1.13;0.70;;;29.60;94.40;;;;;;6117687;23;20065;-65
2023/09/05 12:16:16;;;;;;;0.80;0.57;;;29.50;94.20;;;;;;6091757;23;20441;-65
2023/09/05 12:18:42;;;;;;;6.90;0.82;;;29.50;95.20;;;;;;6090111;23;20436;-65
2023/09/05 12:21:08;;;;;;;1.45;0.60;;;29.60;94.90;;;;;;6092179;23;20053;-65
2023/09/05 12:23:33;;;;;;;1.27;0.50;;;29.60;95.30;;;;;;6091606;23;20018;-65
2023/09/05 12:25:59;;;;;;;1.25;0.95;;;29.80;95.40;;;;;;6117956;23;20017;-66
2023/09/05 12:28:26;;;;;;;1.55;1.02;;;29.80;94.50;;;;;;6119965;23;20100;-66
2023/09/05 12:31:07;;;;;;;0.80;0.77;;;29.90;95.00;;;;;;6093764;23;20025;-65
2023/09/05 12:33:33;;;;;;;1.02;0.80;;;29.80;93.80;;;;;;6093129;23;20014;-66
2023/09/05 12:35:59;;;;;;;1.88;0.90;;;29.80;94.80;;;;;;6093449;23;20505;-66
2023/09/05 12:38:24;;;;;;;3.13;0.70;;;29.80;95.10;;;;;;6119762;23;20476;-65
2023/09/05 12:40:50;;;;;;;1.50;0.80;;;29.60;95.00;;;;;;6093547;23;20014;-66
2023/09/05 12:43:16;;;;;;;0.63;0.50;;;29.50;94.80;;;;;;6119724;23;20022;-65
2023/09/05 12:45:42;;;;;;;1.42;0.65;;;29.50;95.00;;;;;;6094032;23;20483;-66
2023/09/05 12:48:08;;;;;;;1.55;0.70;;;29.50;95.10;;;;;;6119309;23;20018;-65
2023/09/05 12:50:36;;;;;;;1.90;0.60;;;29.60;95.40;;;;;;6093317;23;20463;-66
2023/09/05 12:53:04;;;;;;;2.67;0.85;;;29.60;94.80;;;;;;6119651;23;20021;-65
2023/09/05 12:55:31;;;;;;;2.28;0.80;;;29.60;95.10;;;;;;6119712;23;20056;-66
2023/09/05 12:57:58;;;;;;;2.25;0.60;;;29.50;94.20;;;;;;6118921;23;20017;-65
2023/09/05 13:00:24;;;;;;;1.10;0.60;;;29.50;95.20;;;;;;6119914;23;20029;-65
2023/09/05 13:02:50;;;;;;;1.90;0.70;;;29.50;94.40;;;;;;6093463;23;20017;-66
2023/09/05 13:05:16;;;;;;;1.92;0.70;;;29.60;94.70;;;;;;6093507;23;20093;-66
2023/09/05 13:07:42;;;;;;;0.90;0.60;;;29.60;94.30;;;;;;6118132;23;20014;-65
2023/09/05 13:10:08;;;;;;;1.30;0.68;;;29.60;94.40;;;;;;6092968;23;20052;-65
2023/09/05 13:12:34;;;;;;;1.55;0.70;;;29.50;94.30;;;;;;6119004;23;20433;-66
2023/09/05 13:15:01;;;;;;;1.85;0.60;;;29.50;94.40;;;;;;6119898;23;20025;-65
2023/09/05 13:17:26;;;;;;;1.38;0.65;;;29.40;94.50;;;;;;6094146;23;20021;-66
2023/09/05 13:19:52;;;;;;;0.93;0.60;;;29.20;94.30;;;;;;6091733;23;20349;-66
2023/09/05 13:22:18;;;;;;;1.17;0.63;;;29.40;95.10;;;;;;6117314;23;20445;-66
2023/09/05 13:24:45;;;;;;;0.60;0.60;;;29.40;94.80;;;;;;6093838;23;20014;-66
2023/09/05 13:27:11;;;;;;;1.05;0.52;;;29.30;94.20;;;;;;6092592;23;20010;-65
2023/09/05 13:29:37;;;;;;;2.08;0.80;;;29.40;94.60;;;;;;6117755;23;20014;-65
2023/09/05 13:32:07;;;;;;;0.77;0.55;;;29.30;94.50;;;;;;6117725;23;20025;-65
2023/09/05 13:34:33;;;;;;;0.98;0.40;;;29.30;95.10;;;;;;6119764;23;20009;-66
2023/09/05 13:36:59;;;;;;;1.55;0.70;;;29.30;95.10;;;;;;6093577;23;20014;-66
2023/09/05 13:39:26;;;;;;;1.77;0.73;;;29.30;95.00;;;;;;6119306;23;20072;-65
2023/09/05 13:41:53;;;;;;;2.67;0.50;;;29.20;94.90;;;;;;6119100;23;20025;-65
2023/09/05 13:44:18;;;;;;;1.50;0.77;;;29.20;95.20;;;;;;6093973;23;20014;-65
2023/09/05 13:46:46;;;;;;;2.03;0.88;;;29.20;95.50;;;;;;6092939;23;20356;-65
2023/09/05 13:49:12;;;;;;;1.50;0.70;;;29.30;95.40;;;;;;6092819;23;20014;-66
2023/09/05 13:51:37;;;;;;;1.95;0.77;;;29.20;95.10;;;;;;6092434;23;20018;-65
2023/09/05 13:54:05;;;;;;;6.85;1.15;;;29.30;95.30;;;;;;6093291;23;20361;-66